createdAt,value
2022-09-21T00:00:50.097Z,8.20
2022-09-21T00:03:18.048Z,8.20
2022-09-21T00:05:46.194Z,8.20
2022-09-21T00:08:15.775Z,8.10
2022-09-21T00:10:43.717Z,8.10
2022-09-21T00:13:13.868Z,8.00
2022-09-21T00:15:41.955Z,8.10
2022-09-21T00:18:11.424Z,8.00
2022-09-21T00:20:43.450Z,8.00
2022-09-21T00:23:11.470Z,8.00
2022-09-21T00:25:39.499Z,8.00
2022-09-21T00:28:07.648Z,8.00
2022-09-21T00:30:36.927Z,7.90
2022-09-21T00:33:04.983Z,7.90
2022-09-21T00:35:33.522Z,7.90
2022-09-21T00:38:02.424Z,7.90
2022-09-21T00:40:30.995Z,7.90
2022-09-21T00:43:13.955Z,7.90
2022-09-21T00:45:44.098Z,7.90
2022-09-21T00:48:12.221Z,7.80
2022-09-21T00:50:45.339Z,7.80
2022-09-21T00:53:13.349Z,7.80
2022-09-21T00:55:44.239Z,7.80
2022-09-21T00:58:18.229Z,7.70
2022-09-21T01:00:47.665Z,7.70
2022-09-21T01:03:15.622Z,7.70
2022-09-21T01:05:43.537Z,7.60
2022-09-21T01:08:13.167Z,7.60
2022-09-21T01:10:51.035Z,7.60
2022-09-21T01:13:34.268Z,7.50
2022-09-21T01:16:11.039Z,7.50
2022-09-21T01:18:45.044Z,7.50
2022-09-21T01:21:20.247Z,7.40
2022-09-21T01:24:19.411Z,7.50
2022-09-21T01:27:06.781Z,7.40
2022-09-21T01:29:43.175Z,7.40
2022-09-21T01:32:15.437Z,7.40
2022-09-21T01:34:48.491Z,7.30
2022-09-21T01:37:21.175Z,7.30
2022-09-21T01:39:54.323Z,7.30
2022-09-21T01:42:24.016Z,7.20
2022-09-21T01:44:53.894Z,7.10
2022-09-21T01:47:22.742Z,7.10
2022-09-21T01:49:55.925Z,7.10
2022-09-21T01:59:58.813Z,7.00
2022-09-21T02:02:33.655Z,7.00
2022-09-21T02:05:03.359Z,7.00
2022-09-21T02:07:34.612Z,6.90
2022-09-21T02:10:03.421Z,6.90
2022-09-21T02:12:33.122Z,6.90
2022-09-21T02:15:03.695Z,6.80
2022-09-21T02:17:41.450Z,6.90
2022-09-21T02:20:19.412Z,6.80
2022-09-21T02:22:57.069Z,6.80
2022-09-21T02:25:34.315Z,6.80
2022-09-21T02:28:09.670Z,6.80
2022-09-21T02:30:42.001Z,6.70
2022-09-21T02:33:14.281Z,6.70
2022-09-21T02:35:51.022Z,6.70
2022-09-21T02:38:26.392Z,6.70
2022-09-21T02:40:57.792Z,6.70
2022-09-21T02:43:30.090Z,6.60
2022-09-21T02:46:05.357Z,6.60
2022-09-21T02:48:36.933Z,6.50
2022-09-21T02:51:10.221Z,6.50
2022-09-21T02:53:41.586Z,6.50
2022-09-21T02:56:11.501Z,6.50
2022-09-21T02:58:42.473Z,6.40
2022-09-21T03:01:14.615Z,6.40
2022-09-21T03:03:42.646Z,6.50
2022-09-21T03:06:10.640Z,6.40
2022-09-21T03:08:38.650Z,6.40
2022-09-21T03:11:07.099Z,6.40
2022-09-21T03:13:36.679Z,6.40
2022-09-21T03:16:07.042Z,6.50
2022-09-21T03:18:36.618Z,6.70
2022-09-21T03:21:04.760Z,6.90
2022-09-21T03:23:32.767Z,7.10
2022-09-21T03:26:01.130Z,7.20
2022-09-21T03:28:29.384Z,7.20
2022-09-21T03:30:57.765Z,7.10
2022-09-21T03:33:26.155Z,7.00
2022-09-21T03:35:55.628Z,7.00
2022-09-21T03:38:24.706Z,7.00
2022-09-21T03:40:53.554Z,6.90
2022-09-21T03:43:21.500Z,6.90
2022-09-21T03:45:49.507Z,6.80
2022-09-21T03:48:17.469Z,6.80
2022-09-21T03:50:45.776Z,6.80
2022-09-21T03:53:15.632Z,6.70
2022-09-21T03:55:43.756Z,6.70
2022-09-21T03:58:11.690Z,6.70
2022-09-21T04:00:40.110Z,6.70
2022-09-21T04:03:08.388Z,6.70
2022-09-21T04:05:36.359Z,6.60
2022-09-21T04:08:04.288Z,6.60
2022-09-21T04:10:33.727Z,6.50
2022-09-21T04:13:03.367Z,6.40
2022-09-21T04:15:32.268Z,6.30
2022-09-21T04:18:00.376Z,6.20
2022-09-21T04:20:28.610Z,6.20
2022-09-21T04:22:56.688Z,6.20
2022-09-21T04:25:24.927Z,6.10
2022-09-21T04:27:54.437Z,6.00
2022-09-21T04:30:22.352Z,6.00
2022-09-21T04:32:50.321Z,6.00
2022-09-21T04:35:18.333Z,6.20
2022-09-21T04:37:46.267Z,5.90
2022-09-21T04:40:14.301Z,5.90
2022-09-21T04:42:42.285Z,5.90
2022-09-21T04:45:12.515Z,5.80
2022-09-21T04:47:40.455Z,5.80
2022-09-21T04:50:09.525Z,5.80
2022-09-21T04:52:37.559Z,5.80
2022-09-21T04:55:06.241Z,5.80
2022-09-21T04:57:35.647Z,5.80
2022-09-21T05:00:04.214Z,5.80
2022-09-21T05:02:33.672Z,5.70
2022-09-21T05:05:01.607Z,5.70
2022-09-21T05:07:29.514Z,5.70
2022-09-21T05:10:05.238Z,5.60
2022-09-21T05:12:33.777Z,5.60
2022-09-21T05:15:01.736Z,5.60
2022-09-21T05:17:30.137Z,5.50
2022-09-21T05:19:59.519Z,5.50
2022-09-21T05:22:28.784Z,5.50
2022-09-21T05:24:56.789Z,5.40
2022-09-21T05:27:24.824Z,5.50
2022-09-21T05:29:53.338Z,5.50
2022-09-21T05:32:25.686Z,5.50
2022-09-21T05:35:07.499Z,5.50
2022-09-21T05:37:48.070Z,5.50
2022-09-21T05:40:16.888Z,5.50
2022-09-21T05:42:45.555Z,5.50
2022-09-21T05:45:18.766Z,5.50
2022-09-21T05:47:57.185Z,5.60
2022-09-21T05:50:38.857Z,5.60
2022-09-21T05:53:31.997Z,5.60
2022-09-21T05:56:01.486Z,5.60
2022-09-21T05:58:38.375Z,5.70
2022-09-21T06:01:20.064Z,5.80
2022-09-21T06:03:50.129Z,5.70
2022-09-21T06:06:20.282Z,5.80
2022-09-21T06:08:48.264Z,5.80
2022-09-21T06:11:16.274Z,5.80
2022-09-21T06:13:44.287Z,5.90
2022-09-21T06:16:12.724Z,5.90
2022-09-21T06:18:41.149Z,5.90
2022-09-21T06:21:09.353Z,5.90
2022-09-21T06:23:38.919Z,6.00
2022-09-21T06:26:07.259Z,6.00
2022-09-21T06:28:35.228Z,6.10
2022-09-21T06:31:03.269Z,6.10
2022-09-21T06:33:31.273Z,6.20
2022-09-21T06:36:00.763Z,6.20
2022-09-21T06:38:29.650Z,6.30
2022-09-21T06:41:02.821Z,6.30
2022-09-21T06:43:31.269Z,6.40
2022-09-21T06:46:00.995Z,6.50
2022-09-21T06:48:30.418Z,6.60
2022-09-21T06:50:59.570Z,6.60
2022-09-21T06:53:28.205Z,6.90
2022-09-21T06:56:00.895Z,6.80
2022-09-21T06:58:31.635Z,6.80
2022-09-21T07:00:59.828Z,7.00
2022-09-21T07:03:28.120Z,7.00
2022-09-21T07:05:56.082Z,7.10
2022-09-21T07:11:13.013Z,7.20
2022-09-21T07:13:42.697Z,7.30
2022-09-21T07:16:11.129Z,7.30
2022-09-21T07:18:44.594Z,7.40
2022-09-21T07:21:14.749Z,7.40
2022-09-21T07:23:43.029Z,7.60
2022-09-21T07:26:12.475Z,7.60
2022-09-21T07:28:42.544Z,7.70
2022-09-21T07:31:13.889Z,7.80
2022-09-21T07:33:41.951Z,7.90
2022-09-21T07:36:11.776Z,8.00
2022-09-21T07:38:41.362Z,8.00
2022-09-21T07:41:10.100Z,8.20
2022-09-21T07:43:40.858Z,8.20
2022-09-21T07:46:12.584Z,8.30
2022-09-21T07:48:40.864Z,8.50
2022-09-21T07:51:11.092Z,8.50
2022-09-21T07:53:41.522Z,8.60
2022-09-21T07:56:11.798Z,8.70
2022-09-21T07:59:09.451Z,8.70
2022-09-21T08:01:40.154Z,8.70
2022-09-21T08:04:09.775Z,8.90
2022-09-21T08:06:39.924Z,8.90
2022-09-21T08:09:08.493Z,9.00
2022-09-21T08:11:46.206Z,9.10
2022-09-21T08:14:22.429Z,9.20
2022-09-21T08:16:54.666Z,9.30
2022-09-21T08:19:24.046Z,9.30
2022-09-21T08:21:56.977Z,9.30
2022-09-21T08:24:26.601Z,9.40
2022-09-21T08:26:55.602Z,9.50
2022-09-21T08:29:24.279Z,9.60
2022-09-21T08:31:52.610Z,9.70
2022-09-21T08:34:23.172Z,9.70
2022-09-21T08:36:55.317Z,9.80
2022-09-21T08:39:23.851Z,9.90
2022-09-21T08:42:23.543Z,10.00
2022-09-21T08:47:31.090Z,10.10
2022-09-21T08:52:30.063Z,10.20
2022-09-21T08:57:31.770Z,10.40
2022-09-21T09:00:00.999Z,10.50
2022-09-21T09:02:40.828Z,10.60
2022-09-21T09:05:25.881Z,10.60
2022-09-21T09:08:16.804Z,10.70
2022-09-21T09:10:55.162Z,10.90
2022-09-21T09:23:52.146Z,10.90
2022-09-21T09:26:25.953Z,11.30
2022-09-21T09:34:00.123Z,11.30
2022-09-21T09:36:57.214Z,11.50
2022-09-21T09:39:22.187Z,11.60
2022-09-21T09:42:22.136Z,11.70
2022-09-21T09:45:04.138Z,11.80
2022-09-21T09:55:20.145Z,11.90
2022-09-21T10:23:05.279Z,12.20
2022-09-21T10:25:35.796Z,12.90
2022-09-21T10:28:07.492Z,13.00
2022-09-21T10:30:38.817Z,13.10
2022-09-21T10:33:20.234Z,13.10
2022-09-21T10:35:52.216Z,13.20
2022-09-21T10:38:27.254Z,13.30
2022-09-21T16:58:21.541Z,13.40
2022-09-21T17:00:55.964Z,14.10
2022-09-21T17:03:24.373Z,14.00
2022-09-21T17:05:52.345Z,13.90
2022-09-21T17:08:20.830Z,13.80
2022-09-21T17:10:50.123Z,13.70
2022-09-21T17:25:44.862Z,13.60
2022-09-21T17:30:46.403Z,13.00
2022-09-21T17:33:14.486Z,12.70
2022-09-21T17:35:43.117Z,12.50
2022-09-21T17:40:43.550Z,12.40
2022-09-21T17:43:30.863Z,12.30
2022-09-21T18:06:14.303Z,12.20
2022-09-21T18:08:42.628Z,11.50
2022-09-21T18:11:27.424Z,11.50
2022-09-21T18:14:05.491Z,11.40
2022-09-21T18:16:41.583Z,11.40
2022-09-21T18:19:26.716Z,11.30
2022-09-21T18:22:02.975Z,11.30
2022-09-21T18:24:32.538Z,11.20
2022-09-21T18:27:01.707Z,11.10
2022-09-21T18:29:39.783Z,11.20
2022-09-21T18:32:30.619Z,11.00
2022-09-21T18:35:16.761Z,11.30
2022-09-21T18:37:54.346Z,11.20
2022-09-21T18:40:29.169Z,11.20
2022-09-21T18:43:06.463Z,11.10
2022-09-21T18:45:41.872Z,11.00
2022-09-21T18:48:22.706Z,11.00
2022-09-21T18:51:02.314Z,10.90
2022-09-21T18:53:37.734Z,10.80
2022-09-21T18:56:08.419Z,10.80
2022-09-21T19:11:22.767Z,10.70
2022-09-21T19:31:56.388Z,10.40
2022-09-21T19:34:25.004Z,10.10
2022-09-21T19:36:53.687Z,10.00
2022-09-21T19:39:22.148Z,10.00
2022-09-21T19:42:00.737Z,9.90
2022-09-21T19:44:56.169Z,9.90
2022-09-21T19:47:30.366Z,9.90
2022-09-21T19:50:07.732Z,9.90
2022-09-21T20:00:38.739Z,9.80
2022-09-21T20:03:14.953Z,9.50
2022-09-21T20:05:50.529Z,9.30
2022-09-21T20:08:22.548Z,9.50
2022-09-21T20:11:01.882Z,9.50
2022-09-21T20:14:07.088Z,9.50
2022-09-21T20:16:46.775Z,9.40
2022-09-21T20:19:34.699Z,9.40
2022-09-21T21:34:28.274Z,9.30
2022-09-21T21:36:56.327Z,8.70
2022-09-21T21:39:24.221Z,8.60
2022-09-21T21:41:52.249Z,8.60
2022-09-21T21:44:22.057Z,8.60
2022-09-21T21:46:51.258Z,8.50
2022-09-21T21:49:19.179Z,8.50
2022-09-21T21:51:49.251Z,8.60
2022-09-21T21:54:18.236Z,8.40
2022-09-21T21:56:46.366Z,8.40
2022-09-21T21:59:17.770Z,8.40
2022-09-21T22:01:48.009Z,8.30
2022-09-21T22:04:16.206Z,8.30
2022-09-21T22:06:44.164Z,8.40
2022-09-21T22:09:12.744Z,8.20
2022-09-21T22:11:40.665Z,8.20
2022-09-21T22:14:08.881Z,8.20
2022-09-21T22:16:38.690Z,8.10
2022-09-21T22:19:09.501Z,8.10
2022-09-21T22:21:41.704Z,8.10
2022-09-21T22:24:10.824Z,8.10
2022-09-21T22:26:40.903Z,8.10
2022-09-21T22:29:10.607Z,8.20
2022-09-21T22:31:41.039Z,8.20
2022-09-21T22:34:12.426Z,8.20
2022-09-21T22:36:41.565Z,8.20
2022-09-21T22:39:09.664Z,8.20
2022-09-21T22:41:39.877Z,8.20
2022-09-21T22:44:08.544Z,8.20
2022-09-21T22:46:37.243Z,8.20
2022-09-21T22:49:05.472Z,8.10
2022-09-21T22:51:35.361Z,8.20
2022-09-21T22:54:03.426Z,8.10
2022-09-21T22:56:33.280Z,8.00
2022-09-21T22:59:02.869Z,8.30
2022-09-21T23:01:34.583Z,8.10
2022-09-21T23:04:05.693Z,8.00
2022-09-21T23:06:37.432Z,8.00
2022-09-21T23:09:09.147Z,8.00
2022-09-21T23:11:39.179Z,8.00
2022-09-21T23:14:07.142Z,7.90
2022-09-21T23:16:35.338Z,7.90
2022-09-21T23:19:03.838Z,7.80
2022-09-21T23:21:35.263Z,7.80
2022-09-21T23:26:34.867Z,8.00
2022-09-21T23:29:05.245Z,7.70
2022-09-21T23:31:33.895Z,7.70
2022-09-21T23:34:07.283Z,7.80
2022-09-21T23:36:36.716Z,7.70
2022-09-21T23:39:07.422Z,7.70
2022-09-21T23:41:37.068Z,7.70
2022-09-21T23:44:05.897Z,7.70
2022-09-21T23:46:36.277Z,7.70
2022-09-21T23:49:05.093Z,7.60
2022-09-21T23:51:33.139Z,7.60
2022-09-21T23:54:01.415Z,7.60
2022-09-21T23:56:31.810Z,7.70
2022-09-21T23:59:00.939Z,7.50
